sensor_id;sensor_type;location;lat;lon;timestamp;temperature;humidity
17381;DHT22;8808;52.478;13.378;2022-12-18T00:02:13;-4.10;99.90
17381;DHT22;8808;52.478;13.378;2022-12-18T00:04:40;-4.10;99.90
17381;DHT22;8808;52.478;13.378;2022-12-18T00:07:07;-4.10;99.90
17381;DHT22;8808;52.478;13.378;2022-12-18T00:09:34;-4.00;99.90
17381;DHT22;8808;52.478;13.378;2022-12-18T00:12:03;-4.00;99.90
17381;DHT22;8808;52.478;13.378;2022-12-18T00:14:30;-4.20;99.90
17381;DHT22;8808;52.478;13.378;2022-12-18T00:16:57;-4.20;99.90
17381;DHT22;8808;52.478;13.378;2022-12-18T00:19:26;-4.20;99.90
17381;DHT22;8808;52.478;13.378;2022-12-18T00:21:53;-4.20;99.90
17381;DHT22;8808;52.478;13.378;2022-12-18T00:24:20;-4.30;99.90
17381;DHT22;8808;52.478;13.378;2022-12-18T00:26:47;-4.10;99.90
17381;DHT22;8808;52.478;13.378;2022-12-18T00:29:16;-4.10;99.90
17381;DHT22;8808;52.478;13.378;2022-12-18T00:31:43;-4.10;99.90
17381;DHT22;8808;52.478;13.378;2022-12-18T00:34:11;-4.10;99.90
17381;DHT22;8808;52.478;13.378;2022-12-18T00:36:39;-4.30;99.90
17381;DHT22;8808;52.478;13.378;2022-12-18T00:39:06;-4.30;99.90
17381;DHT22;8808;52.478;13.378;2022-12-18T00:41:33;-4.30;99.90
17381;DHT22;8808;52.478;13.378;2022-12-18T00:44:19;-4.40;99.90
17381;DHT22;8808;52.478;13.378;2022-12-18T00:46:47;-4.30;99.90
17381;DHT22;8808;52.478;13.378;2022-12-18T00:49:16;-4.60;99.90
17381;DHT22;8808;52.478;13.378;2022-12-18T00:51:43;-4.40;99.90
17381;DHT22;8808;52.478;13.378;2022-12-18T00:54:10;-4.40;99.90
17381;DHT22;8808;52.478;13.378;2022-12-18T00:56:38;-4.40;99.90
17381;DHT22;8808;52.478;13.378;2022-12-18T00:59:05;-4.50;99.90
17381;DHT22;8808;52.478;13.378;2022-12-18T01:01:34;-4.40;99.90
17381;DHT22;8808;52.478;13.378;2022-12-18T01:04:02;-4.50;99.90
17381;DHT22;8808;52.478;13.378;2022-12-18T01:06:29;-4.40;99.90
17381;DHT22;8808;52.478;13.378;2022-12-18T01:08:56;-4.50;99.90
17381;DHT22;8808;52.478;13.378;2022-12-18T01:11:24;-4.50;99.90
17381;DHT22;8808;52.478;13.378;2022-12-18T01:13:52;-4.50;99.90
17381;DHT22;8808;52.478;13.378;2022-12-18T01:16:20;-4.40;99.90
17381;DHT22;8808;52.478;13.378;2022-12-18T01:18:51;-4.50;99.90
17381;DHT22;8808;52.478;13.378;2022-12-18T01:21:18;-4.50;99.90
17381;DHT22;8808;52.478;13.378;2022-12-18T01:23:46;-4.50;99.90
17381;DHT22;8808;52.478;13.378;2022-12-18T01:26:14;-4.60;99.90
17381;DHT22;8808;52.478;13.378;2022-12-18T01:28:43;-4.60;99.90
17381;DHT22;8808;52.478;13.378;2022-12-18T01:31:16;-4.50;99.90
17381;DHT22;8808;52.478;13.378;2022-12-18T01:33:43;-4.60;99.90
17381;DHT22;8808;52.478;13.378;2022-12-18T01:36:20;-4.70;99.90
17381;DHT22;8808;52.478;13.378;2022-12-18T01:38:48;-4.70;99.90
17381;DHT22;8808;52.478;13.378;2022-12-18T01:41:17;-4.60;99.90
17381;DHT22;8808;52.478;13.378;2022-12-18T01:43:46;-4.70;99.90
17381;DHT22;8808;52.478;13.378;2022-12-18T01:46:14;-4.60;99.90
17381;DHT22;8808;52.478;13.378;2022-12-18T01:48:41;-4.60;99.90
17381;DHT22;8808;52.478;13.378;2022-12-18T01:51:10;-4.50;99.90
17381;DHT22;8808;52.478;13.378;2022-12-18T01:53:40;-4.70;99.90
17381;DHT22;8808;52.478;13.378;2022-12-18T01:56:08;-4.60;99.90
17381;DHT22;8808;52.478;13.378;2022-12-18T01:58:43;-4.60;99.90
17381;DHT22;8808;52.478;13.378;2022-12-18T02:04:19;-4.40;99.90
17381;DHT22;8808;52.478;13.378;2022-12-18T02:06:52;-4.60;99.90
17381;DHT22;8808;52.478;13.378;2022-12-18T02:09:26;-4.60;99.90
17381;DHT22;8808;52.478;13.378;2022-12-18T02:12:00;-4.60;99.90
17381;DHT22;8808;52.478;13.378;2022-12-18T02:14:37;-4.60;99.90
17381;DHT22;8808;52.478;13.378;2022-12-18T02:17:11;-4.60;99.90
17381;DHT22;8808;52.478;13.378;2022-12-18T02:19:49;-4.60;99.90
17381;DHT22;8808;52.478;13.378;2022-12-18T02:22:28;-4.60;99.90
17381;DHT22;8808;52.478;13.378;2022-12-18T02:25:10;-4.60;99.90
17381;DHT22;8808;52.478;13.378;2022-12-18T02:27:43;-4.70;99.90
17381;DHT22;8808;52.478;13.378;2022-12-18T02:30:12;-4.70;99.90
17381;DHT22;8808;52.478;13.378;2022-12-18T02:32:42;-4.60;99.90
17381;DHT22;8808;52.478;13.378;2022-12-18T02:35:16;-4.60;99.90
17381;DHT22;8808;52.478;13.378;2022-12-18T02:37:45;-4.60;99.90
17381;DHT22;8808;52.478;13.378;2022-12-18T02:40:14;-4.60;99.90
17381;DHT22;8808;52.478;13.378;2022-12-18T02:42:44;-4.60;99.90
17381;DHT22;8808;52.478;13.378;2022-12-18T02:45:11;-4.60;99.90
17381;DHT22;8808;52.478;13.378;2022-12-18T02:47:40;-4.60;99.90
17381;DHT22;8808;52.478;13.378;2022-12-18T02:50:13;-4.60;99.90
17381;DHT22;8808;52.478;13.378;2022-12-18T02:52:49;-4.60;99.90
17381;DHT22;8808;52.478;13.378;2022-12-18T02:55:28;-4.60;99.90
17381;DHT22;8808;52.478;13.378;2022-12-18T02:58:00;-4.60;99.90
17381;DHT22;8808;52.478;13.378;2022-12-18T03:00:31;-4.70;99.90
17381;DHT22;8808;52.478;13.378;2022-12-18T03:03:05;-4.80;99.90
17381;DHT22;8808;52.478;13.378;2022-12-18T03:05:37;-4.80;99.90
17381;DHT22;8808;52.478;13.378;2022-12-18T03:08:07;-4.90;99.90
17381;DHT22;8808;52.478;13.378;2022-12-18T03:10:39;-4.90;99.90
17381;DHT22;8808;52.478;13.378;2022-12-18T03:13:13;-5.00;99.90
17381;DHT22;8808;52.478;13.378;2022-12-18T03:15:45;-4.90;99.90
17381;DHT22;8808;52.478;13.378;2022-12-18T03:18:16;-4.90;99.90
17381;DHT22;8808;52.478;13.378;2022-12-18T03:20:46;-5.00;99.90
17381;DHT22;8808;52.478;13.378;2022-12-18T03:23:18;-5.00;99.90
17381;DHT22;8808;52.478;13.378;2022-12-18T03:25:48;-4.80;99.90
17381;DHT22;8808;52.478;13.378;2022-12-18T03:28:21;-4.80;99.90
17381;DHT22;8808;52.478;13.378;2022-12-18T03:30:52;-4.70;99.90
17381;DHT22;8808;52.478;13.378;2022-12-18T03:33:25;-4.80;99.90
17381;DHT22;8808;52.478;13.378;2022-12-18T03:35:54;-4.80;99.90
17381;DHT22;8808;52.478;13.378;2022-12-18T03:38:21;-4.70;99.90
17381;DHT22;8808;52.478;13.378;2022-12-18T03:40:59;-4.80;99.90
17381;DHT22;8808;52.478;13.378;2022-12-18T03:43:37;-4.80;99.90
17381;DHT22;8808;52.478;13.378;2022-12-18T03:46:11;-4.80;99.90
17381;DHT22;8808;52.478;13.378;2022-12-18T03:48:45;-4.80;99.90
17381;DHT22;8808;52.478;13.378;2022-12-18T03:51:17;-4.90;99.90
17381;DHT22;8808;52.478;13.378;2022-12-18T03:53:49;-5.00;99.90
17381;DHT22;8808;52.478;13.378;2022-12-18T03:56:19;-5.00;99.90
17381;DHT22;8808;52.478;13.378;2022-12-18T03:58:50;-4.90;99.90
17381;DHT22;8808;52.478;13.378;2022-12-18T04:01:22;-5.00;99.90
17381;DHT22;8808;52.478;13.378;2022-12-18T04:03:51;-5.00;99.90
17381;DHT22;8808;52.478;13.378;2022-12-18T04:06:19;-5.10;99.90
17381;DHT22;8808;52.478;13.378;2022-12-18T04:08:47;-5.10;99.90
17381;DHT22;8808;52.478;13.378;2022-12-18T04:11:15;-5.10;99.90
17381;DHT22;8808;52.478;13.378;2022-12-18T04:13:42;-5.20;99.90
17381;DHT22;8808;52.478;13.378;2022-12-18T04:16:11;-5.10;99.90
17381;DHT22;8808;52.478;13.378;2022-12-18T04:18:38;-5.20;99.90
17381;DHT22;8808;52.478;13.378;2022-12-18T04:21:05;-5.20;99.90
17381;DHT22;8808;52.478;13.378;2022-12-18T04:23:32;-5.10;99.90
17381;DHT22;8808;52.478;13.378;2022-12-18T04:25:59;-5.10;99.90
17381;DHT22;8808;52.478;13.378;2022-12-18T04:28:26;-5.10;99.90
17381;DHT22;8808;52.478;13.378;2022-12-18T04:30:52;-5.10;99.90
17381;DHT22;8808;52.478;13.378;2022-12-18T04:33:21;-5.20;99.90
17381;DHT22;8808;52.478;13.378;2022-12-18T04:35:48;-5.30;99.90
17381;DHT22;8808;52.478;13.378;2022-12-18T04:38:15;-5.30;99.90
17381;DHT22;8808;52.478;13.378;2022-12-18T04:40:42;-5.20;99.90
17381;DHT22;8808;52.478;13.378;2022-12-18T04:43:09;-5.30;99.90
17381;DHT22;8808;52.478;13.378;2022-12-18T04:45:36;-5.30;99.90
17381;DHT22;8808;52.478;13.378;2022-12-18T04:48:04;-5.30;99.90
17381;DHT22;8808;52.478;13.378;2022-12-18T04:50:32;-5.40;99.90
17381;DHT22;8808;52.478;13.378;2022-12-18T04:52:59;-5.20;99.90
17381;DHT22;8808;52.478;13.378;2022-12-18T04:55:26;-5.10;99.90
17381;DHT22;8808;52.478;13.378;2022-12-18T04:57:54;-5.20;99.90
17381;DHT22;8808;52.478;13.378;2022-12-18T05:00:21;-5.30;99.90
17381;DHT22;8808;52.478;13.378;2022-12-18T05:02:48;-5.10;99.90
17381;DHT22;8808;52.478;13.378;2022-12-18T05:05:16;-5.20;99.90
17381;DHT22;8808;52.478;13.378;2022-12-18T05:07:44;-5.20;99.90
17381;DHT22;8808;52.478;13.378;2022-12-18T05:10:11;-5.10;99.90
17381;DHT22;8808;52.478;13.378;2022-12-18T05:12:38;-5.20;99.90
17381;DHT22;8808;52.478;13.378;2022-12-18T05:15:24;-5.20;99.90
17381;DHT22;8808;52.478;13.378;2022-12-18T05:17:50;-5.10;99.90
17381;DHT22;8808;52.478;13.378;2022-12-18T05:20:18;-5.20;99.90
17381;DHT22;8808;52.478;13.378;2022-12-18T05:22:46;-5.20;99.90
17381;DHT22;8808;52.478;13.378;2022-12-18T05:25:13;-5.30;99.90
17381;DHT22;8808;52.478;13.378;2022-12-18T05:27:40;-5.20;99.90
17381;DHT22;8808;52.478;13.378;2022-12-18T05:30:08;-5.20;99.90
17381;DHT22;8808;52.478;13.378;2022-12-18T05:32:35;-5.40;99.90
17381;DHT22;8808;52.478;13.378;2022-12-18T05:35:03;-5.20;99.90
17381;DHT22;8808;52.478;13.378;2022-12-18T05:37:30;-5.10;99.90
17381;DHT22;8808;52.478;13.378;2022-12-18T05:39:58;-5.10;99.90
17381;DHT22;8808;52.478;13.378;2022-12-18T05:42:25;-5.00;99.90
17381;DHT22;8808;52.478;13.378;2022-12-18T05:44:52;-5.00;99.90
17381;DHT22;8808;52.478;13.378;2022-12-18T05:47:19;-5.10;99.90
17381;DHT22;8808;52.478;13.378;2022-12-18T05:49:46;-5.00;99.90
17381;DHT22;8808;52.478;13.378;2022-12-18T05:52:13;-5.10;99.90
17381;DHT22;8808;52.478;13.378;2022-12-18T05:54:40;-5.00;99.90
17381;DHT22;8808;52.478;13.378;2022-12-18T05:57:08;-5.10;99.90
17381;DHT22;8808;52.478;13.378;2022-12-18T05:59:35;-5.10;99.90
17381;DHT22;8808;52.478;13.378;2022-12-18T06:02:02;-5.10;99.90
17381;DHT22;8808;52.478;13.378;2022-12-18T06:04:29;-5.10;99.90
17381;DHT22;8808;52.478;13.378;2022-12-18T06:06:56;-5.20;99.90
17381;DHT22;8808;52.478;13.378;2022-12-18T06:09:23;-5.30;99.90
17381;DHT22;8808;52.478;13.378;2022-12-18T06:11:51;-5.20;99.90
17381;DHT22;8808;52.478;13.378;2022-12-18T06:14:20;-5.30;99.90
17381;DHT22;8808;52.478;13.378;2022-12-18T06:16:46;-5.10;99.90
17381;DHT22;8808;52.478;13.378;2022-12-18T06:19:15;-5.00;99.90
17381;DHT22;8808;52.478;13.378;2022-12-18T06:21:42;-5.10;99.90
17381;DHT22;8808;52.478;13.378;2022-12-18T06:24:09;-4.90;99.90
17381;DHT22;8808;52.478;13.378;2022-12-18T06:26:37;-4.90;99.90
17381;DHT22;8808;52.478;13.378;2022-12-18T06:29:04;-5.00;99.90
17381;DHT22;8808;52.478;13.378;2022-12-18T06:31:32;-5.10;99.90
17381;DHT22;8808;52.478;13.378;2022-12-18T06:34:02;-5.10;99.90
17381;DHT22;8808;52.478;13.378;2022-12-18T06:36:29;-5.10;99.90
17381;DHT22;8808;52.478;13.378;2022-12-18T06:38:56;-5.10;99.90
17381;DHT22;8808;52.478;13.378;2022-12-18T06:41:23;-5.20;99.90
17381;DHT22;8808;52.478;13.378;2022-12-18T06:43:50;-5.00;99.90
17381;DHT22;8808;52.478;13.378;2022-12-18T06:46:17;-5.00;99.90
17381;DHT22;8808;52.478;13.378;2022-12-18T06:48:48;-5.00;99.90
17381;DHT22;8808;52.478;13.378;2022-12-18T06:51:17;-5.20;99.90
17381;DHT22;8808;52.478;13.378;2022-12-18T06:53:44;-5.10;99.90
17381;DHT22;8808;52.478;13.378;2022-12-18T06:56:11;-5.30;99.90
17381;DHT22;8808;52.478;13.378;2022-12-18T06:58:38;-5.30;99.90
17381;DHT22;8808;52.478;13.378;2022-12-18T07:01:08;-5.20;99.90
17381;DHT22;8808;52.478;13.378;2022-12-18T07:03:35;-5.10;99.90
17381;DHT22;8808;52.478;13.378;2022-12-18T07:06:04;-5.30;99.90
17381;DHT22;8808;52.478;13.378;2022-12-18T07:08:32;-5.10;99.90
17381;DHT22;8808;52.478;13.378;2022-12-18T07:11:02;-5.00;99.90
17381;DHT22;8808;52.478;13.378;2022-12-18T07:13:29;-5.00;99.90
17381;DHT22;8808;52.478;13.378;2022-12-18T07:16:04;-5.00;99.90
17381;DHT22;8808;52.478;13.378;2022-12-18T07:18:30;-5.10;99.90
17381;DHT22;8808;52.478;13.378;2022-12-18T07:20:57;-5.20;99.90
17381;DHT22;8808;52.478;13.378;2022-12-18T07:23:26;-4.90;99.90
17381;DHT22;8808;52.478;13.378;2022-12-18T07:25:52;-5.10;99.90
17381;DHT22;8808;52.478;13.378;2022-12-18T07:28:19;-4.90;99.90
17381;DHT22;8808;52.478;13.378;2022-12-18T07:30:46;-4.90;99.90
17381;DHT22;8808;52.478;13.378;2022-12-18T07:33:13;-4.80;99.90
17381;DHT22;8808;52.478;13.378;2022-12-18T07:35:40;-4.90;99.90
17381;DHT22;8808;52.478;13.378;2022-12-18T07:38:07;-4.90;99.90
17381;DHT22;8808;52.478;13.378;2022-12-18T07:40:36;-4.80;99.90
17381;DHT22;8808;52.478;13.378;2022-12-18T07:43:03;-4.70;99.90
17381;DHT22;8808;52.478;13.378;2022-12-18T07:45:30;-4.70;99.90
17381;DHT22;8808;52.478;13.378;2022-12-18T07:47:56;-4.70;99.90
17381;DHT22;8808;52.478;13.378;2022-12-18T07:50:24;-4.80;99.90
17381;DHT22;8808;52.478;13.378;2022-12-18T07:52:50;-4.70;99.90
17381;DHT22;8808;52.478;13.378;2022-12-18T07:55:17;-4.70;99.90
17381;DHT22;8808;52.478;13.378;2022-12-18T07:57:46;-4.60;99.90
17381;DHT22;8808;52.478;13.378;2022-12-18T08:00:14;-4.70;99.90
17381;DHT22;8808;52.478;13.378;2022-12-18T08:02:42;-4.80;99.90
17381;DHT22;8808;52.478;13.378;2022-12-18T08:05:09;-4.70;99.90
17381;DHT22;8808;52.478;13.378;2022-12-18T08:07:35;-4.70;99.90
17381;DHT22;8808;52.478;13.378;2022-12-18T08:10:03;-4.60;99.90
17381;DHT22;8808;52.478;13.378;2022-12-18T08:12:30;-4.60;99.90
17381;DHT22;8808;52.478;13.378;2022-12-18T08:14:58;-4.70;99.90
17381;DHT22;8808;52.478;13.378;2022-12-18T08:17:25;-4.70;99.90
17381;DHT22;8808;52.478;13.378;2022-12-18T08:19:52;-4.50;99.90
17381;DHT22;8808;52.478;13.378;2022-12-18T08:22:19;-4.50;99.90
17381;DHT22;8808;52.478;13.378;2022-12-18T08:24:46;-4.70;99.90
17381;DHT22;8808;52.478;13.378;2022-12-18T08:27:13;-4.70;99.90
17381;DHT22;8808;52.478;13.378;2022-12-18T08:29:40;-4.60;99.90
17381;DHT22;8808;52.478;13.378;2022-12-18T08:32:08;-4.60;99.90
17381;DHT22;8808;52.478;13.378;2022-12-18T08:34:35;-4.50;99.90
17381;DHT22;8808;52.478;13.378;2022-12-18T08:37:02;-4.50;99.90
17381;DHT22;8808;52.478;13.378;2022-12-18T08:39:29;-4.60;99.90
17381;DHT22;8808;52.478;13.378;2022-12-18T08:41:56;-4.60;99.90
17381;DHT22;8808;52.478;13.378;2022-12-18T08:44:41;-4.60;99.90
17381;DHT22;8808;52.478;13.378;2022-12-18T08:47:09;-4.70;99.90
17381;DHT22;8808;52.478;13.378;2022-12-18T08:49:36;-4.50;99.90
17381;DHT22;8808;52.478;13.378;2022-12-18T08:52:03;-4.50;99.90
17381;DHT22;8808;52.478;13.378;2022-12-18T08:54:30;-4.70;99.90
17381;DHT22;8808;52.478;13.378;2022-12-18T08:56:57;-4.60;99.90
17381;DHT22;8808;52.478;13.378;2022-12-18T08:59:24;-4.40;99.90
17381;DHT22;8808;52.478;13.378;2022-12-18T09:01:54;-4.50;99.90
17381;DHT22;8808;52.478;13.378;2022-12-18T09:04:22;-4.50;99.90
17381;DHT22;8808;52.478;13.378;2022-12-18T09:06:49;-4.40;99.90
17381;DHT22;8808;52.478;13.378;2022-12-18T09:09:16;-4.40;99.90
17381;DHT22;8808;52.478;13.378;2022-12-18T09:11:43;-4.30;99.90
17381;DHT22;8808;52.478;13.378;2022-12-18T09:14:10;-4.40;99.90
17381;DHT22;8808;52.478;13.378;2022-12-18T09:16:37;-4.40;99.90
17381;DHT22;8808;52.478;13.378;2022-12-18T09:19:05;-4.50;99.90
17381;DHT22;8808;52.478;13.378;2022-12-18T09:21:37;-4.40;99.90
17381;DHT22;8808;52.478;13.378;2022-12-18T09:24:05;-4.40;99.90
17381;DHT22;8808;52.478;13.378;2022-12-18T09:26:32;-4.50;99.90
17381;DHT22;8808;52.478;13.378;2022-12-18T09:28:59;-4.50;99.90
17381;DHT22;8808;52.478;13.378;2022-12-18T09:31:26;-4.30;99.90
17381;DHT22;8808;52.478;13.378;2022-12-18T09:33:55;-4.20;99.90
17381;DHT22;8808;52.478;13.378;2022-12-18T09:36:22;-4.30;99.90
17381;DHT22;8808;52.478;13.378;2022-12-18T09:38:50;-4.40;99.90
17381;DHT22;8808;52.478;13.378;2022-12-18T09:41:39;-4.30;99.90
17381;DHT22;8808;52.478;13.378;2022-12-18T09:44:17;-4.30;99.90
17381;DHT22;8808;52.478;13.378;2022-12-18T09:46:50;-4.10;99.90
17381;DHT22;8808;52.478;13.378;2022-12-18T09:49:20;-4.10;99.90
17381;DHT22;8808;52.478;13.378;2022-12-18T09:51:52;-4.00;99.90
17381;DHT22;8808;52.478;13.378;2022-12-18T09:54:25;-4.00;99.90
17381;DHT22;8808;52.478;13.378;2022-12-18T09:56:52;-4.00;99.90
17381;DHT22;8808;52.478;13.378;2022-12-18T09:59:24;-4.00;99.90
17381;DHT22;8808;52.478;13.378;2022-12-18T10:01:51;-4.10;99.90
17381;DHT22;8808;52.478;13.378;2022-12-18T10:04:18;-4.00;99.90
17381;DHT22;8808;52.478;13.378;2022-12-18T10:06:50;-3.90;99.90
17381;DHT22;8808;52.478;13.378;2022-12-18T10:09:27;-3.90;99.90
17381;DHT22;8808;52.478;13.378;2022-12-18T10:12:02;-3.90;99.90
17381;DHT22;8808;52.478;13.378;2022-12-18T10:14:36;-3.70;99.90
17381;DHT22;8808;52.478;13.378;2022-12-18T10:17:13;-3.70;99.90
17381;DHT22;8808;52.478;13.378;2022-12-18T10:19:46;-3.70;99.90
17381;DHT22;8808;52.478;13.378;2022-12-18T10:22:23;-3.50;99.90
17381;DHT22;8808;52.478;13.378;2022-12-18T10:24:58;-3.70;99.90
17381;DHT22;8808;52.478;13.378;2022-12-18T10:27:28;-3.20;99.90
17381;DHT22;8808;52.478;13.378;2022-12-18T10:29:57;-3.40;99.90
17381;DHT22;8808;52.478;13.378;2022-12-18T10:32:25;-3.50;99.90
17381;DHT22;8808;52.478;13.378;2022-12-18T10:34:53;-3.40;99.90
17381;DHT22;8808;52.478;13.378;2022-12-18T10:37:23;-3.40;99.90
17381;DHT22;8808;52.478;13.378;2022-12-18T10:40:08;-3.50;99.90
17381;DHT22;8808;52.478;13.378;2022-12-18T10:42:36;-3.40;99.90
17381;DHT22;8808;52.478;13.378;2022-12-18T10:45:05;-3.40;99.90
17381;DHT22;8808;52.478;13.378;2022-12-18T10:47:35;-3.40;99.90
17381;DHT22;8808;52.478;13.378;2022-12-18T10:50:02;-3.30;99.90
17381;DHT22;8808;52.478;13.378;2022-12-18T10:52:30;-3.40;99.90
17381;DHT22;8808;52.478;13.378;2022-12-18T10:54:59;-3.20;99.90
17381;DHT22;8808;52.478;13.378;2022-12-18T10:57:34;-3.30;99.90
17381;DHT22;8808;52.478;13.378;2022-12-18T11:00:22;-3.30;99.90
17381;DHT22;8808;52.478;13.378;2022-12-18T11:02:50;-3.20;99.90
17381;DHT22;8808;52.478;13.378;2022-12-18T11:05:28;-3.00;99.90
17381;DHT22;8808;52.478;13.378;2022-12-18T11:07:57;-2.70;99.90
17381;DHT22;8808;52.478;13.378;2022-12-18T11:10:29;-2.60;99.90
17381;DHT22;8808;52.478;13.378;2022-12-18T11:13:10;-2.70;99.90
17381;DHT22;8808;52.478;13.378;2022-12-18T11:15:40;-2.70;99.90
17381;DHT22;8808;52.478;13.378;2022-12-18T11:18:16;-2.60;99.90
17381;DHT22;8808;52.478;13.378;2022-12-18T11:20:50;-2.60;99.90
17381;DHT22;8808;52.478;13.378;2022-12-18T11:23:19;-2.60;99.90
17381;DHT22;8808;52.478;13.378;2022-12-18T11:25:52;-2.60;99.90
17381;DHT22;8808;52.478;13.378;2022-12-18T11:28:35;-2.70;99.90
17381;DHT22;8808;52.478;13.378;2022-12-18T11:31:22;-2.60;99.90
17381;DHT22;8808;52.478;13.378;2022-12-18T11:33:58;-2.60;99.90
17381;DHT22;8808;52.478;13.378;2022-12-18T11:36:29;-2.60;99.90
17381;DHT22;8808;52.478;13.378;2022-12-18T11:39:02;-2.90;99.90
17381;DHT22;8808;52.478;13.378;2022-12-18T11:41:32;-2.80;99.90
17381;DHT22;8808;52.478;13.378;2022-12-18T11:44:22;-2.80;99.90
17381;DHT22;8808;52.478;13.378;2022-12-18T11:46:55;-2.70;99.90
17381;DHT22;8808;52.478;13.378;2022-12-18T11:49:27;-2.70;99.90
17381;DHT22;8808;52.478;13.378;2022-12-18T11:51:58;-2.60;99.90
17381;DHT22;8808;52.478;13.378;2022-12-18T11:54:27;-2.70;99.90
17381;DHT22;8808;52.478;13.378;2022-12-18T11:56:56;-2.80;99.90
17381;DHT22;8808;52.478;13.378;2022-12-18T11:59:34;-3.00;99.90
17381;DHT22;8808;52.478;13.378;2022-12-18T12:02:17;-3.10;99.90
17381;DHT22;8808;52.478;13.378;2022-12-18T12:07:37;-3.00;99.90
17381;DHT22;8808;52.478;13.378;2022-12-18T12:10:16;-2.90;99.90
17381;DHT22;8808;52.478;13.378;2022-12-18T12:12:58;-2.90;99.90
17381;DHT22;8808;52.478;13.378;2022-12-18T12:15:37;-2.90;99.90
17381;DHT22;8808;52.478;13.378;2022-12-18T12:18:16;-3.00;99.90
17381;DHT22;8808;52.478;13.378;2022-12-18T12:20:56;-2.80;99.90
17381;DHT22;8808;52.478;13.378;2022-12-18T12:23:33;-2.90;99.90
17381;DHT22;8808;52.478;13.378;2022-12-18T12:26:06;-2.90;99.90
17381;DHT22;8808;52.478;13.378;2022-12-18T12:28:52;-2.70;99.90
17381;DHT22;8808;52.478;13.378;2022-12-18T12:31:36;-2.80;99.90
17381;DHT22;8808;52.478;13.378;2022-12-18T12:34:12;-2.80;99.90
17381;DHT22;8808;52.478;13.378;2022-12-18T12:36:52;-2.90;99.90
17381;DHT22;8808;52.478;13.378;2022-12-18T12:39:23;-2.80;99.90
17381;DHT22;8808;52.478;13.378;2022-12-18T12:41:54;-2.70;99.90
17381;DHT22;8808;52.478;13.378;2022-12-18T12:44:42;-2.70;99.90
17381;DHT22;8808;52.478;13.378;2022-12-18T12:47:15;-2.70;99.90
17381;DHT22;8808;52.478;13.378;2022-12-18T12:49:44;-2.70;99.90
17381;DHT22;8808;52.478;13.378;2022-12-18T12:52:17;-2.70;99.90
17381;DHT22;8808;52.478;13.378;2022-12-18T12:54:45;-2.70;99.90
17381;DHT22;8808;52.478;13.378;2022-12-18T12:57:15;-2.90;99.90
17381;DHT22;8808;52.478;13.378;2022-12-18T12:59:52;-2.80;99.90
17381;DHT22;8808;52.478;13.378;2022-12-18T13:02:30;-2.70;99.90
17381;DHT22;8808;52.478;13.378;2022-12-18T13:05:04;-2.70;99.90
17381;DHT22;8808;52.478;13.378;2022-12-18T13:07:37;-2.70;99.90
17381;DHT22;8808;52.478;13.378;2022-12-18T13:10:22;-2.60;99.90
17381;DHT22;8808;52.478;13.378;2022-12-18T13:12:54;-2.70;99.90
17381;DHT22;8808;52.478;13.378;2022-12-18T13:15:27;-2.70;99.90
17381;DHT22;8808;52.478;13.378;2022-12-18T13:18:22;-2.60;99.90
17381;DHT22;8808;52.478;13.378;2022-12-18T13:20:53;-2.60;99.90
17381;DHT22;8808;52.478;13.378;2022-12-18T13:23:31;-2.60;99.90
17381;DHT22;8808;52.478;13.378;2022-12-18T13:26:27;-2.60;99.90
17381;DHT22;8808;52.478;13.378;2022-12-18T13:28:52;-2.50;99.90
17381;DHT22;8808;52.478;13.378;2022-12-18T13:34:36;-2.30;99.90
17381;DHT22;8808;52.478;13.378;2022-12-18T13:37:37;-2.40;99.90
17381;DHT22;8808;52.478;13.378;2022-12-18T13:43:21;-2.40;99.90
17381;DHT22;8808;52.478;13.378;2022-12-18T13:45:59;-2.50;99.90
17381;DHT22;8808;52.478;13.378;2022-12-18T13:48:28;-2.60;99.90
17381;DHT22;8808;52.478;13.378;2022-12-18T13:51:00;-2.40;99.90
17381;DHT22;8808;52.478;13.378;2022-12-18T13:53:33;-2.30;99.90
17381;DHT22;8808;52.478;13.378;2022-12-18T13:56:02;-2.60;99.90
17381;DHT22;8808;52.478;13.378;2022-12-18T13:58:29;-2.70;99.90
17381;DHT22;8808;52.478;13.378;2022-12-18T14:00:56;-2.40;99.90
17381;DHT22;8808;52.478;13.378;2022-12-18T14:03:26;-2.50;99.90
17381;DHT22;8808;52.478;13.378;2022-12-18T14:05:58;-2.60;99.90
17381;DHT22;8808;52.478;13.378;2022-12-18T14:08:32;-2.70;99.90
17381;DHT22;8808;52.478;13.378;2022-12-18T14:11:00;-2.70;99.90
17381;DHT22;8808;52.478;13.378;2022-12-18T14:13:30;-2.70;99.90
17381;DHT22;8808;52.478;13.378;2022-12-18T14:16:01;-2.90;99.90
17381;DHT22;8808;52.478;13.378;2022-12-18T14:18:33;-2.90;99.90
17381;DHT22;8808;52.478;13.378;2022-12-18T14:21:05;-2.90;99.90
17381;DHT22;8808;52.478;13.378;2022-12-18T14:23:35;-2.90;99.90
17381;DHT22;8808;52.478;13.378;2022-12-18T14:26:19;-2.90;99.90
17381;DHT22;8808;52.478;13.378;2022-12-18T14:28:47;-2.80;99.90
17381;DHT22;8808;52.478;13.378;2022-12-18T14:31:18;-2.80;99.90
17381;DHT22;8808;52.478;13.378;2022-12-18T14:33:46;-2.90;99.90
17381;DHT22;8808;52.478;13.378;2022-12-18T14:36:17;-2.90;99.90
17381;DHT22;8808;52.478;13.378;2022-12-18T14:38:49;-2.90;99.90
17381;DHT22;8808;52.478;13.378;2022-12-18T14:41:17;-2.90;99.90
17381;DHT22;8808;52.478;13.378;2022-12-18T14:43:49;-2.90;99.90
17381;DHT22;8808;52.478;13.378;2022-12-18T14:46:28;-2.90;99.90
17381;DHT22;8808;52.478;13.378;2022-12-18T14:48:56;-2.90;99.90
17381;DHT22;8808;52.478;13.378;2022-12-18T14:51:26;-2.80;99.90
17381;DHT22;8808;52.478;13.378;2022-12-18T14:53:55;-2.80;99.90
17381;DHT22;8808;52.478;13.378;2022-12-18T14:56:25;-2.80;99.90
17381;DHT22;8808;52.478;13.378;2022-12-18T14:58:54;-2.90;99.90
17381;DHT22;8808;52.478;13.378;2022-12-18T15:01:34;-2.90;99.90
17381;DHT22;8808;52.478;13.378;2022-12-18T15:04:02;-3.00;99.90
17381;DHT22;8808;52.478;13.378;2022-12-18T15:06:35;-3.10;99.90
17381;DHT22;8808;52.478;13.378;2022-12-18T15:09:05;-3.00;99.90
17381;DHT22;8808;52.478;13.378;2022-12-18T15:11:47;-3.00;99.90
17381;DHT22;8808;52.478;13.378;2022-12-18T15:14:39;-3.10;99.90
17381;DHT22;8808;52.478;13.378;2022-12-18T15:17:16;-3.10;99.90
17381;DHT22;8808;52.478;13.378;2022-12-18T15:19:44;-3.00;99.90
17381;DHT22;8808;52.478;13.378;2022-12-18T15:22:26;-3.00;99.90
17381;DHT22;8808;52.478;13.378;2022-12-18T15:24:55;-3.10;99.90
17381;DHT22;8808;52.478;13.378;2022-12-18T15:27:30;-3.10;99.90
17381;DHT22;8808;52.478;13.378;2022-12-18T15:30:20;-3.10;99.90
17381;DHT22;8808;52.478;13.378;2022-12-18T15:32:47;-3.00;99.90
17381;DHT22;8808;52.478;13.378;2022-12-18T15:35:17;-2.90;99.90
17381;DHT22;8808;52.478;13.378;2022-12-18T15:37:46;-2.90;99.90
17381;DHT22;8808;52.478;13.378;2022-12-18T15:40:14;-2.90;99.90
17381;DHT22;8808;52.478;13.378;2022-12-18T15:42:42;-2.90;99.90
17381;DHT22;8808;52.478;13.378;2022-12-18T15:45:27;-2.80;99.90
17381;DHT22;8808;52.478;13.378;2022-12-18T15:47:55;-2.90;99.90
17381;DHT22;8808;52.478;13.378;2022-12-18T15:50:22;-3.00;99.90
17381;DHT22;8808;52.478;13.378;2022-12-18T15:52:52;-2.90;99.90
17381;DHT22;8808;52.478;13.378;2022-12-18T15:55:21;-2.90;99.90
17381;DHT22;8808;52.478;13.378;2022-12-18T15:58:07;-2.90;99.90
17381;DHT22;8808;52.478;13.378;2022-12-18T16:00:35;-3.10;99.90
17381;DHT22;8808;52.478;13.378;2022-12-18T16:03:03;-3.00;99.90
17381;DHT22;8808;52.478;13.378;2022-12-18T16:05:31;-3.10;99.90